Time;durP1;ratioP1;P1;durP2;ratioP2;P2;SDS_P1;SDS_P2;PMS_P1;PMS_P2;Temp;Humidity;BMP_temperature;BMP_pressure;BME280_temperature;BME280_humidity;BME280_pressure;Samples;Min_cycle;Max_cycle;Signal;HPM_P1;HPM_P2
2021/06/05 00:00:35;;;;;;;5.42;4.78;;;;;;;18.45;75.48;100650.16;2922539;81;20992;-62
2021/06/05 00:04:39;;;;;;;5.53;4.95;;;;;;;18.48;74.59;100644.95;2922469;81;20984;-62
2021/06/05 00:08:41;;;;;;;4.60;4.08;;;;;;;18.54;74.40;100638.88;2922617;81;20995;-63
2021/06/05 00:12:43;;;;;;;5.28;4.45;;;;;;;18.57;74.76;100637.19;2914890;81;21025;-62
2021/06/05 00:16:48;;;;;;;8.90;5.45;;;;;;;18.53;75.70;100628.59;2908844;81;21016;-62
2021/06/05 00:20:51;;;;;;;9.23;5.40;;;;;;;18.53;76.10;100629.11;2932089;80;21018;-62
2021/06/05 00:24:53;;;;;;;9.03;4.97;;;;;;;18.53;75.93;100630.46;2932095;81;21019;-62
2021/06/05 00:28:57;;;;;;;6.55;4.72;;;;;;;18.53;75.89;100623.73;2932431;80;21087;-62
2021/06/05 00:33:00;;;;;;;6.50;5.80;;;;;;;18.55;75.59;100625.74;2932092;81;21008;-62
2021/06/05 00:37:03;;;;;;;6.22;5.62;;;;;;;18.61;75.16;100633.13;2932170;81;21047;-62
2021/06/05 00:41:08;;;;;;;6.53;5.80;;;;;;;18.67;74.95;100636.52;2932416;81;20985;-62
2021/06/05 00:45:13;;;;;;;11.68;7.90;;;;;;;18.75;75.43;100644.23;2932434;80;21043;-61
2021/06/05 00:49:16;;;;;;;6.90;5.40;;;;;;;18.75;75.81;100626.20;2911451;81;21047;-62
2021/06/05 00:53:21;;;;;;;12.07;6.45;;;;;;;18.65;76.97;100614.27;2894007;80;21019;-61
2021/06/05 00:57:23;;;;;;;8.03;5.93;;;;;;;18.43;78.43;100602.84;2882427;82;20992;-62
2021/06/05 01:01:28;;;;;;;7.10;6.28;;;;;;;18.23;79.60;100608.58;2879984;82;21078;-62
2021/06/05 01:05:32;;;;;;;6.20;5.57;;;;;;;18.06;80.46;100597.80;2881704;82;21019;-62
2021/06/05 01:09:55;;;;;;;6.60;5.25;;;;;;;17.95;80.51;100590.88;2881820;82;21723;-62
2021/06/05 01:14:10;;;;;;;9.15;6.35;;;;;;;17.92;80.98;100592.55;2903999;81;21015;-62
2021/06/05 01:18:32;;;;;;;6.20;5.58;;;;;;;17.84;80.68;100588.52;2909700;81;21425;-61
2021/06/05 01:22:48;;;;;;;8.43;5.85;;;;;;;17.81;81.10;100599.63;2933882;81;20994;-61
2021/06/05 01:26:57;;;;;;;8.40;7.08;;;;;;;17.83;81.63;100607.84;2925715;80;21059;-62
2021/06/05 01:31:03;;;;;;;8.10;5.28;;;;;;;17.83;81.98;100587.66;2925931;81;21019;-62
2021/06/05 01:35:10;;;;;;;6.80;5.85;;;;;;;17.79;81.85;100590.36;2925760;80;21027;-62
2021/06/05 01:39:18;;;;;;;9.65;6.53;;;;;;;17.74;81.87;100597.23;2925671;81;21003;-62
2021/06/05 01:43:24;;;;;;;7.30;6.53;;;;;;;17.73;82.21;100595.06;2923570;81;21252;-62
2021/06/05 01:47:26;;;;;;;7.55;6.55;;;;;;;17.83;81.52;100597.08;2893282;81;21047;-62
2021/06/05 01:51:29;;;;;;;10.32;7.30;;;;;;;17.86;81.56;100595.92;2926316;81;20991;-62
2021/06/05 01:55:39;;;;;;;8.30;6.97;;;;;;;17.92;81.72;100610.56;2924754;81;20968;-62
2021/06/05 01:59:43;;;;;;;8.00;7.05;;;;;;;18.01;81.94;100629.73;2900939;81;21004;-61
2021/06/05 02:03:45;;;;;;;8.78;6.92;;;;;;;18.00;81.72;100625.36;2891269;81;21534;-61
2021/06/05 02:07:56;;;;;;;9.65;6.95;;;;;;;17.99;83.07;100599.46;2874920;82;20999;-60
2021/06/05 02:12:06;;;;;;;7.35;6.65;;;;;;;17.94;83.13;100581.11;2874606;82;21597;-60
2021/06/05 02:16:25;;;;;;;8.20;7.40;;;;;;;17.85;82.76;100572.19;2885775;82;21075;-60
2021/06/05 02:20:37;;;;;;;7.85;6.42;;;;;;;17.63;84.07;100564.77;2894217;82;21002;-60
2021/06/05 02:24:44;;;;;;;8.15;7.10;;;;;;;17.41;85.50;100559.01;2899619;82;21097;-60
2021/06/05 02:28:50;;;;;;;7.50;6.83;;;;;;;17.20;86.60;100558.13;2899373;80;21420;-60
2021/06/05 02:32:54;;;;;;;13.80;10.38;;;;;;;17.09;87.46;100560.58;2899638;82;21027;-60
2021/06/05 02:37:00;;;;;;;10.28;7.70;;;;;;;17.18;87.25;100578.92;2899300;82;21007;-60
2021/06/05 02:41:04;;;;;;;9.40;6.95;;;;;;;17.24;86.51;100585.84;2878171;82;21034;-61
2021/06/05 02:45:12;;;;;;;10.05;6.78;;;;;;;17.28;86.32;100572.92;2899373;82;21054;-60
2021/06/05 02:49:25;;;;;;;11.48;7.75;;;;;;;17.38;86.05;100566.89;2899321;82;21066;-60
2021/06/05 02:53:27;;;;;;;12.68;7.08;;;;;;;17.47;85.71;100572.31;2899725;82;20999;-60
2021/06/05 02:57:31;;;;;;;10.50;6.50;;;;;;;17.51;85.31;100569.63;2899505;82;21050;-60
2021/06/05 03:01:34;;;;;;;10.08;7.83;;;;;;;17.51;84.51;100561.55;2899651;82;20987;-60
2021/06/05 03:05:36;;;;;;;11.22;6.78;;;;;;;17.54;84.77;100556.70;2899795;82;20999;-60
2021/06/05 03:09:38;;;;;;;8.28;7.17;;;;;;;17.46;84.97;100559.35;2902035;80;21062;-60
2021/06/05 03:13:41;;;;;;;14.28;9.48;;;;;;;17.34;85.98;100552.09;2939339;80;21016;-60
2021/06/05 03:17:43;;;;;;;11.90;9.23;;;;;;;17.34;86.47;100553.96;2948906;80;20991;-60
2021/06/05 03:21:45;;;;;;;11.18;8.13;;;;;;;17.46;86.11;100561.22;2950560;80;21054;-60
2021/06/05 03:25:47;;;;;;;7.37;6.67;;;;;;;17.56;85.76;100549.79;2950979;80;21038;-60
2021/06/05 03:29:48;;;;;;;13.43;9.38;;;;;;;17.65;85.57;100551.99;2951493;80;21023;-60
2021/06/05 03:33:51;;;;;;;9.35;7.62;;;;;;;17.66;85.21;100563.95;2951467;80;21021;-60
2021/06/05 03:37:53;;;;;;;9.18;8.08;;;;;;;17.69;84.78;100572.20;2951171;80;21003;-60
2021/06/05 03:41:55;;;;;;;8.73;7.55;;;;;;;17.71;84.67;100566.14;2951172;80;21014;-60
2021/06/05 03:45:58;;;;;;;10.10;7.78;;;;;;;17.75;84.57;100555.38;2951079;80;20967;-60
2021/06/05 03:50:01;;;;;;;9.55;7.47;;;;;;;17.80;84.52;100557.06;2951264;80;21011;-60
2021/06/05 03:54:04;;;;;;;9.43;7.78;;;;;;;17.83;84.69;100562.63;2951525;80;21051;-60
2021/06/05 03:58:07;;;;;;;7.75;6.95;;;;;;;17.95;84.50;100562.61;2951171;80;21071;-60
2021/06/05 04:02:08;;;;;;;10.85;8.43;;;;;;;18.07;84.45;100555.07;2949320;80;21050;-61
2021/06/05 04:06:13;;;;;;;11.73;7.00;;;;;;;18.23;84.25;100554.73;2934839;80;21003;-61
2021/06/05 04:10:16;;;;;;;9.78;6.12;;;;;;;18.37;83.91;100556.74;2948887;80;20995;-61
2021/06/05 04:14:17;;;;;;;9.50;7.55;;;;;;;18.49;83.73;100554.53;2939802;80;20984;-61
2021/06/05 04:18:34;;;;;;;8.20;7.37;;;;;;;18.57;83.23;100556.38;2917245;81;21026;-61
2021/06/05 04:22:36;;;;;;;11.08;8.43;;;;;;;18.67;83.32;100543.56;2917802;81;21012;-61
2021/06/05 04:26:38;;;;;;;9.33;7.33;;;;;;;19.12;83.68;100537.69;2912501;80;21083;-61
2021/06/05 04:30:42;;;;;;;7.67;6.95;;;;;;;19.39;82.05;100544.45;2894929;81;20971;-61
2021/06/05 04:34:43;;;;;;;11.88;7.67;;;;;;;19.55;82.24;100539.95;2893326;81;21000;-61
2021/06/05 04:38:48;;;;;;;9.33;7.45;;;;;;;19.80;81.15;100541.97;2918666;81;20988;-61
2021/06/05 04:42:50;;;;;;;10.60;8.65;;;;;;;20.07;80.74;100540.27;2918943;81;21008;-62
2021/06/05 04:46:52;;;;;;;16.02;8.05;;;;;;;20.92;80.12;100544.98;2919435;81;21003;-62
2021/06/05 04:50:54;;;;;;;8.23;7.40;;;;;;;21.67;77.15;100538.05;2919698;81;20985;-62
2021/06/05 04:54:56;;;;;;;9.80;7.05;;;;;;;22.49;75.14;100540.94;2919898;81;20956;-62
2021/06/05 04:58:58;;;;;;;8.40;6.87;;;;;;;23.19;72.01;100538.67;2920204;81;20989;-62
2021/06/05 05:03:00;;;;;;;10.68;7.85;;;;;;;23.75;69.53;100536.21;2898053;80;20964;-61
2021/06/05 05:07:06;;;;;;;10.72;8.30;;;;;;;24.07;67.80;100532.41;2887159;80;21015;-62
2021/06/05 05:11:10;;;;;;;11.05;8.23;;;;;;;24.20;66.15;100527.48;2891690;80;20965;-62
2021/06/05 05:15:13;;;;;;;11.97;8.65;;;;;;;24.47;66.69;100526.61;2909633;80;21036;-64
2021/06/05 05:19:23;;;;;;;13.25;8.80;;;;;;;24.68;64.39;100528.24;2890793;81;21015;-63
2021/06/05 05:23:27;;;;;;;9.30;7.33;;;;;;;24.76;63.85;100531.25;2919342;80;20965;-63
2021/06/05 05:27:31;;;;;;;9.37;8.47;;;;;;;24.60;63.20;100529.30;2919040;80;21110;-65
2021/06/05 05:31:33;;;;;;;13.75;8.30;;;;;;;24.67;64.80;100526.03;2921889;80;21237;-67
2021/06/05 05:35:35;;;;;;;10.05;7.55;;;;;;;24.92;63.48;100534.86;2917474;81;20960;-67
2021/06/05 05:39:41;;;;;;;11.30;8.73;;;;;;;24.87;62.81;100535.22;2933092;80;21019;-67
2021/06/05 05:43:43;;;;;;;13.98;9.18;;;;;;;24.94;62.69;100533.30;2936825;80;20994;-67
2021/06/05 05:47:58;;;;;;;10.60;8.45;;;;;;;24.94;62.92;100532.75;2937147;80;20999;-67
2021/06/05 05:52:00;;;;;;;11.65;8.20;;;;;;;25.03;61.81;100532.53;2936711;81;20995;-67
2021/06/05 05:56:05;;;;;;;11.38;8.65;;;;;;;25.05;62.50;100529.89;2937182;80;21019;-67
2021/06/05 06:00:13;;;;;;;13.22;8.83;;;;;;;25.11;61.45;100528.19;2937171;81;21019;-67
2021/06/05 06:04:14;;;;;;;11.20;8.63;;;;;;;25.13;61.26;100526.62;2936669;81;20996;-67
2021/06/05 06:08:21;;;;;;;9.35;8.38;;;;;;;25.20;62.10;100521.46;2936791;81;20984;-66
2021/06/05 06:12:23;;;;;;;11.00;8.05;;;;;;;25.31;61.40;100522.66;2937283;81;21560;-66
2021/06/05 06:16:27;;;;;;;12.53;8.70;;;;;;;25.32;61.07;100519.39;2927996;80;21079;-67
2021/06/05 06:20:40;;;;;;;9.20;7.97;;;;;;;25.20;61.57;100524.19;2924685;81;21028;-67
2021/06/05 06:24:40;;;;;;;11.30;8.03;;;;;;;25.18;60.48;100521.36;2924922;81;21477;-67
2021/06/05 06:28:45;;;;;;;13.78;9.38;;;;;;;25.17;62.58;100531.94;2877354;81;21235;-67
2021/06/05 06:32:51;;;;;;;9.25;8.35;;;;;;;25.34;61.60;100544.51;2874930;82;21011;-67
2021/06/05 06:36:57;;;;;;;11.33;9.03;;;;;;;25.49;60.73;100542.91;2877963;81;21032;-67
2021/06/05 06:41:01;;;;;;;12.10;9.25;;;;;;;25.57;60.83;100541.81;2885900;81;21083;-67
2021/06/05 06:45:05;;;;;;;10.18;8.78;;;;;;;25.67;60.78;100547.59;2904214;81;20996;-67
2021/06/05 06:49:12;;;;;;;11.80;9.55;;;;;;;25.69;60.02;100549.56;2925291;81;20989;-67
2021/06/05 06:53:17;;;;;;;10.82;8.28;;;;;;;25.80;59.80;100547.51;2925171;81;21004;-67
2021/06/05 06:57:22;;;;;;;13.32;9.80;;;;;;;25.79;59.69;100543.12;2925288;81;21000;-66
2021/06/05 07:01:23;;;;;;;11.55;9.18;;;;;;;25.77;60.26;100545.23;2904291;81;21408;-66
2021/06/05 07:05:26;;;;;;;12.80;8.80;;;;;;;25.85;60.42;100552.30;2874540;83;20972;-66
2021/06/05 07:09:35;;;;;;;10.53;8.38;;;;;;;25.84;60.65;100546.52;2875039;83;20960;-66
2021/06/05 07:13:38;;;;;;;11.85;8.58;;;;;;;25.91;59.93;100540.51;2874951;83;20976;-66
2021/06/05 07:17:41;;;;;;;13.60;9.93;;;;;;;26.00;60.06;100535.62;2874791;82;21070;-66
2021/06/05 07:21:44;;;;;;;9.75;8.65;;;;;;;26.03;60.72;100537.89;2874967;83;21008;-66
2021/06/05 07:25:46;;;;;;;12.55;8.75;;;;;;;26.30;61.55;100544.48;2874937;83;20992;-66
2021/06/05 07:29:55;;;;;;;12.25;8.60;;;;;;;26.61;59.71;100539.98;2874454;82;20996;-66
2021/06/05 07:33:57;;;;;;;11.35;9.48;;;;;;;26.63;58.66;100541.95;2874732;83;21043;-66
2021/06/05 07:38:02;;;;;;;13.28;8.93;;;;;;;26.83;59.53;100541.45;2875027;83;21031;-66
2021/06/05 07:42:08;;;;;;;9.53;8.63;;;;;;;26.98;58.29;100547.35;2875079;83;21031;-66
2021/06/05 07:46:17;;;;;;;12.10;8.93;;;;;;;26.83;58.01;100546.36;2874938;83;20983;-66
2021/06/05 07:50:19;;;;;;;10.85;8.60;;;;;;;26.65;58.20;100543.11;2920850;81;20988;-66
2021/06/05 07:54:22;;;;;;;10.20;8.53;;;;;;;26.42;58.85;100542.39;2925263;81;20948;-66
2021/06/05 07:58:35;;;;;;;13.43;8.83;;;;;;;26.29;59.54;100544.73;2925006;81;21044;-66
2021/06/05 08:02:37;;;;;;;9.23;7.67;;;;;;;26.21;58.96;100541.76;2878680;81;21095;-66
2021/06/05 08:06:42;;;;;;;9.65;8.10;;;;;;;26.09;59.27;100542.44;2891088;81;20965;-66
2021/06/05 08:10:44;;;;;;;10.18;9.20;;;;;;;26.04;58.74;100529.17;2877246;81;21023;-66
2021/06/05 08:14:46;;;;;;;10.68;9.63;;;;;;;25.90;58.70;100527.94;2900979;81;21003;-66
2021/06/05 08:18:53;;;;;;;10.93;7.72;;;;;;;25.89;59.18;100522.70;2874725;83;21020;-66
2021/06/05 08:23:00;;;;;;;8.03;6.42;;;;;;;26.00;59.54;100522.50;2874805;82;20987;-66
2021/06/05 08:27:02;;;;;;;12.25;9.28;;;;;;;26.26;60.45;100526.91;2855462;82;21103;-66
2021/06/05 08:31:08;;;;;;;9.58;8.55;;;;;;;26.52;59.48;100514.91;2874980;83;21051;-66
2021/06/05 08:35:11;;;;;;;9.53;7.80;;;;;;;26.73;58.09;100514.70;2874641;82;21019;-66
2021/06/05 08:39:14;;;;;;;11.38;8.68;;;;;;;26.83;59.10;100513.61;2874873;83;21055;-66
2021/06/05 08:43:33;;;;;;;9.95;7.70;;;;;;;26.96;57.27;100515.91;2890000;81;20984;-66
2021/06/05 08:47:38;;;;;;;9.73;8.43;;;;;;;27.15;58.77;100514.81;2925022;81;21000;-66
2021/06/05 08:52:05;;;;;;;10.05;8.28;;;;;;;27.31;58.82;100516.58;2925367;81;21000;-66
2021/06/05 08:56:10;;;;;;;9.25;7.97;;;;;;;27.41;58.45;100517.38;2924042;81;21766;-66
2021/06/05 09:00:33;;;;;;;10.20;7.08;;;;;;;27.41;57.78;100512.77;2924773;81;20984;-65
2021/06/05 09:04:37;;;;;;;8.40;7.28;;;;;;;27.35;58.23;100502.78;2925116;81;21035;-65
2021/06/05 09:08:41;;;;;;;8.55;7.25;;;;;;;27.34;57.74;100503.30;2925351;81;21027;-66
2021/06/05 09:12:43;;;;;;;7.00;6.25;;;;;;;27.34;57.33;100506.03;2925244;81;21035;-65
2021/06/05 09:16:50;;;;;;;11.00;7.45;;;;;;;27.36;56.17;100508.54;2925030;81;21004;-66
2021/06/05 09:21:10;;;;;;;6.80;6.15;;;;;;;27.21;55.65;100504.33;2925234;81;20984;-66
2021/06/05 09:25:23;;;;;;;7.58;6.78;;;;;;;27.11;55.90;100502.67;2924653;81;21055;-65
2021/06/05 09:29:36;;;;;;;6.83;5.90;;;;;;;27.11;55.97;100505.40;2900419;80;21086;-65
2021/06/05 09:33:38;;;;;;;13.10;6.50;;;;;;;27.03;55.96;100511.19;2879466;81;21016;-65
2021/06/05 09:37:48;;;;;;;6.85;6.10;;;;;;;27.07;56.10;100501.47;2925061;81;21004;-66
2021/06/05 09:41:51;;;;;;;5.85;5.33;;;;;;;27.08;55.78;100503.13;2924837;81;21039;-65
2021/06/05 09:46:32;;;;;;;7.47;5.28;;;;;;;27.07;55.50;100508.30;2925205;81;21190;-65
2021/06/05 09:50:41;;;;;;;8.65;6.20;;;;;;;27.12;55.54;100510.34;2914253;81;20999;-65
2021/06/05 09:54:46;;;;;;;6.15;5.20;;;;;;;27.29;56.15;100507.27;2922527;81;20961;-65
2021/06/05 09:59:07;;;;;;;5.40;4.95;;;;;;;27.38;56.05;100503.67;2902541;81;20996;-65
2021/06/05 10:03:32;;;;;;;5.47;4.95;;;;;;;27.55;55.67;100500.31;2914167;81;21024;-66
2021/06/05 10:07:37;;;;;;;6.67;5.40;;;;;;;27.71;55.52;100498.27;2925147;81;21028;-65
2021/06/05 10:11:42;;;;;;;7.60;5.05;;;;;;;27.77;54.48;100498.69;2925259;81;21284;-65
2021/06/05 10:15:52;;;;;;;5.80;4.90;;;;;;;27.78;54.10;100496.77;2899878;81;21023;-65
2021/06/05 10:20:06;;;;;;;7.12;4.17;;;;;;;27.83;53.22;100490.60;2903558;80;20999;-65
2021/06/05 10:25:03;;;;;;;5.78;4.80;;;;;;;27.87;55.56;100483.59;2903353;80;21007;-65
2021/06/05 10:29:44;;;;;;;5.90;5.35;;;;;;;28.02;54.32;100477.13;2903125;80;21094;-65
2021/06/05 10:34:02;;;;;;;7.20;5.58;;;;;;;28.13;53.94;100476.01;2903542;82;21010;-66
2021/06/05 10:38:31;;;;;;;7.20;5.53;;;;;;;28.12;54.09;100477.89;2902267;82;21605;-65
2021/06/05 10:42:54;;;;;;;6.60;5.25;;;;;;;27.98;51.89;100481.41;2903163;82;21062;-65
2021/06/05 10:47:31;;;;;;;4.62;4.22;;;;;;;27.90;52.04;100479.02;2903365;82;21022;-65
2021/06/05 10:51:36;;;;;;;5.53;4.80;;;;;;;27.98;52.42;100483.30;2902797;82;21054;-65
2021/06/05 10:55:57;;;;;;;5.80;4.47;;;;;;;27.99;53.47;100476.23;2903768;82;21010;-65
2021/06/05 11:00:04;;;;;;;5.70;4.45;;;;;;;28.09;52.08;100471.54;2903370;82;21019;-65
2021/06/05 11:04:27;;;;;;;4.10;3.77;;;;;;;28.11;50.61;100480.89;2901775;82;21006;-65
2021/06/05 11:08:39;;;;;;;8.08;4.72;;;;;;;28.07;49.54;100469.03;2901757;82;21038;-65
2021/06/05 11:12:47;;;;;;;4.72;4.12;;;;;;;28.13;50.82;100465.07;2903392;82;21583;-66
2021/06/05 11:17:40;;;;;;;4.97;4.12;;;;;;;28.18;51.73;100467.94;2903282;82;21007;-65
2021/06/05 11:21:45;;;;;;;5.92;4.90;;;;;;;28.21;50.67;100468.30;2931800;80;21015;-65
2021/06/05 11:25:50;;;;;;;4.40;4.00;;;;;;;28.04;52.97;100472.25;2955009;80;20999;-65
2021/06/05 11:30:00;;;;;;;6.20;4.65;;;;;;;27.79;53.33;100467.00;2944977;79;21062;-66
2021/06/05 11:34:02;;;;;;;5.78;4.62;;;;;;;27.73;54.15;100459.77;2903857;82;21046;-66
2021/06/05 11:38:11;;;;;;;9.48;4.55;;;;;;;27.85;52.35;100458.40;2904220;82;21027;-66
2021/06/05 11:42:24;;;;;;;4.87;4.35;;;;;;;28.02;53.28;100449.78;2903848;82;21560;-66
2021/06/05 11:46:37;;;;;;;5.87;5.35;;;;;;;28.08;52.17;100446.09;2926458;80;20980;-66
2021/06/05 11:50:40;;;;;;;5.85;4.95;;;;;;;28.05;52.94;100452.04;2954849;80;21015;-66
2021/06/05 11:54:42;;;;;;;6.10;4.92;;;;;;;28.02;51.51;100455.25;2953305;80;21025;-66
2021/06/05 11:58:51;;;;;;;7.53;5.45;;;;;;;28.08;53.15;100447.45;2903685;82;21049;-66
2021/06/05 12:03:09;;;;;;;5.03;4.50;;;;;;;28.22;51.48;100443.14;2903758;82;20999;-66
2021/06/05 12:07:38;;;;;;;5.22;4.72;;;;;;;28.24;50.87;100441.00;2903899;82;20967;-66
2021/06/05 12:12:01;;;;;;;7.00;5.72;;;;;;;28.33;50.05;100431.36;2903596;81;20995;-66
2021/06/05 12:16:20;;;;;;;5.85;5.35;;;;;;;28.45;52.11;100429.97;2902058;82;21082;-66
2021/06/05 12:20:29;;;;;;;5.08;4.58;;;;;;;28.33;50.65;100434.63;2897192;82;21058;-66
2021/06/05 12:24:31;;;;;;;4.25;3.92;;;;;;;28.12;50.02;100425.95;2918760;80;21026;-66
2021/06/05 12:28:38;;;;;;;7.12;4.37;;;;;;;28.12;51.56;100421.03;2935823;80;21117;-66
2021/06/05 12:32:41;;;;;;;4.80;4.35;;;;;;;28.28;49.63;100419.48;2953723;80;21038;-66
2021/06/05 12:36:46;;;;;;;11.70;4.75;;;;;;;28.38;50.04;100416.94;2918680;80;21027;-66
2021/06/05 12:41:00;;;;;;;;;;;;;;;28.68;50.08;100411.80;2908923;80;21027;-66
2021/06/05 12:45:10;;;;;;;4.85;4.42;;;;;;;29.02;49.37;100408.34;2926162;80;20087;-66
2021/06/05 12:49:18;;;;;;;6.35;4.70;;;;;;;29.10;49.36;100411.23;2943903;80;21036;-66
2021/06/05 12:53:24;;;;;;;5.17;4.78;;;;;;;28.71;49.47;100407.77;2903889;82;20951;-66
2021/06/05 12:57:38;;;;;;;5.05;4.22;;;;;;;28.56;51.13;100396.80;2903919;80;20991;-66
2021/06/05 13:01:48;;;;;;;4.28;3.87;;;;;;;28.69;49.29;100388.84;2903815;82;21007;-66
2021/06/05 13:06:19;;;;;;;4.00;3.70;;;;;;;28.87;49.35;100380.16;2903772;82;21026;-66
2021/06/05 13:10:30;;;;;;;4.75;3.75;;;;;;;28.70;48.56;100381.48;2903550;82;21093;-66
2021/06/05 13:14:37;;;;;;;4.50;3.85;;;;;;;28.56;48.95;100385.86;2925799;80;20991;-66
2021/06/05 13:18:45;;;;;;;6.35;4.58;;;;;;;28.41;49.03;100373.24;2953905;80;21039;-66
2021/06/05 13:22:47;;;;;;;4.53;3.87;;;;;;;28.47;50.18;100374.99;2954220;80;20967;-66
2021/06/05 13:27:15;;;;;;;4.47;4.08;;;;;;;28.53;48.29;100372.67;2954826;79;21054;-66
2021/06/05 13:31:41;;;;;;;4.33;3.90;;;;;;;28.68;48.29;100369.91;2954771;80;21050;-66
2021/06/05 13:35:46;;;;;;;3.65;3.33;;;;;;;28.89;46.11;100366.53;2953830;80;20999;-66
2021/06/05 13:40:00;;;;;;;4.83;4.43;;;;;;;29.12;46.40;100370.73;2955146;80;20991;-66
2021/06/05 13:44:01;;;;;;;6.35;3.92;;;;;;;29.29;46.56;100372.13;2954992;80;20975;-66
2021/06/05 13:48:07;;;;;;;6.35;4.55;;;;;;;29.29;46.70;100372.13;2954950;80;21018;-66
2021/06/05 13:52:29;;;;;;;3.60;3.25;;;;;;;28.95;47.25;100381.67;2955022;80;20948;-66
2021/06/05 13:56:49;;;;;;;10.78;4.53;;;;;;;28.62;47.90;100382.14;2922037;80;21031;-66
2021/06/05 14:00:52;;;;;;;5.47;3.45;;;;;;;28.33;47.46;100379.40;2903304;82;21051;-66
2021/06/05 14:04:54;;;;;;;4.25;3.70;;;;;;;28.28;47.54;100374.36;2944433;80;21067;-66
2021/06/05 14:09:00;;;;;;;4.42;3.67;;;;;;;28.52;46.77;100368.28;2954576;80;20995;-66
2021/06/05 14:13:03;;;;;;;5.80;4.08;;;;;;;28.72;45.95;100365.08;2954759;80;20964;-66
2021/06/05 14:17:08;;;;;;;3.67;3.27;;;;;;;28.64;47.15;100366.30;2954736;80;21015;-66
2021/06/05 14:21:12;;;;;;;4.03;3.65;;;;;;;28.74;47.89;100362.11;2954820;80;20989;-66
2021/06/05 14:25:16;;;;;;;3.62;3.25;;;;;;;28.91;45.66;100361.64;2940506;80;21066;-66
2021/06/05 14:29:19;;;;;;;4.45;3.80;;;;;;;29.11;46.72;100349.38;2958532;79;21082;-66
2021/06/05 14:33:23;;;;;;;4.03;3.10;;;;;;;29.25;45.75;100354.50;2958524;80;21501;-66
2021/06/05 14:37:24;;;;;;;5.17;4.47;;;;;;;29.30;45.66;100353.23;2959306;80;21082;-66
2021/06/05 14:41:27;;;;;;;5.05;4.25;;;;;;;29.25;47.68;100350.40;2959116;80;20983;-66
2021/06/05 14:45:33;;;;;;;3.62;3.33;;;;;;;29.04;47.41;100354.17;2957018;80;20983;-66
2021/06/05 14:49:36;;;;;;;5.72;4.72;;;;;;;28.89;47.80;100354.73;2951037;80;21564;-66
2021/06/05 14:53:38;;;;;;;4.42;3.15;;;;;;;28.79;49.06;100348.02;2931284;80;21011;-66
2021/06/05 14:57:39;;;;;;;5.92;3.90;;;;;;;28.88;47.11;100350.34;2903739;82;20983;-66
2021/06/05 15:01:42;;;;;;;3.75;3.35;;;;;;;28.96;45.01;100343.64;2903677;80;21007;-66
2021/06/05 15:05:43;;;;;;;4.33;3.33;;;;;;;29.12;45.10;100341.98;2903970;80;20952;-66
2021/06/05 15:09:46;;;;;;;3.20;2.90;;;;;;;29.33;44.28;100330.27;2903897;82;21015;-66
2021/06/05 15:13:48;;;;;;;3.95;3.40;;;;;;;29.47;45.06;100329.41;2904070;80;21007;-66
2021/06/05 15:17:51;;;;;;;3.92;2.87;;;;;;;29.48;44.70;100335.73;2889765;80;21047;-66
2021/06/05 15:21:53;;;;;;;7.20;4.42;;;;;;;29.36;44.55;100327.58;2871304;82;20964;-65
2021/06/05 15:25:56;;;;;;;3.62;3.33;;;;;;;29.26;44.80;100323.30;2878377;81;21255;-65
2021/06/05 15:29:57;;;;;;;3.90;3.05;;;;;;;29.26;44.57;100324.67;2920718;81;21056;-65
2021/06/05 15:33:59;;;;;;;4.10;3.35;;;;;;;29.31;43.57;100317.92;2920780;81;21039;-65
2021/06/05 15:38:04;;;;;;;4.28;2.40;;;;;;;29.32;44.25;100316.84;2897093;81;20976;-65
2021/06/05 15:42:07;;;;;;;7.08;3.12;;;;;;;29.30;42.94;100312.16;2871130;81;21054;-66
2021/06/05 15:46:14;;;;;;;3.75;3.20;;;;;;;29.29;43.92;100310.50;2871279;83;20968;-66
2021/06/05 15:50:23;;;;;;;3.92;3.42;;;;;;;29.31;44.15;100308.34;2871303;83;21039;-66
2021/06/05 15:54:26;;;;;;;3.15;2.87;;;;;;;29.26;45.16;100307.70;2871364;83;21027;-65
2021/06/05 15:58:29;;;;;;;4.05;3.75;;;;;;;29.26;44.10;100304.13;2871368;83;20988;-66
2021/06/05 16:02:31;;;;;;;3.87;3.58;;;;;;;29.29;44.14;100305.83;2871026;83;20988;-65
2021/06/05 16:06:34;;;;;;;3.45;3.15;;;;;;;29.24;44.59;100303.55;2871205;83;21015;-65
2021/06/05 16:10:36;;;;;;;3.33;3.02;;;;;;;29.11;44.31;100304.20;2870895;83;20964;-65
2021/06/05 16:14:38;;;;;;;2.83;2.60;;;;;;;28.98;44.70;100308.07;2870938;83;20976;-66
2021/06/05 16:18:41;;;;;;;3.17;2.87;;;;;;;28.86;45.76;100310.08;2886424;82;21001;-65
2021/06/05 16:22:44;;;;;;;3.58;2.98;;;;;;;28.69;46.16;100314.11;2899762;82;21015;-65
2021/06/05 16:26:50;;;;;;;3.77;3.47;;;;;;;28.57;46.31;100319.64;2899523;81;21002;-65
2021/06/05 16:30:53;;;;;;;3.33;3.02;;;;;;;28.53;46.01;100317.96;2899705;82;20976;-65
2021/06/05 16:34:55;;;;;;;4.17;3.87;;;;;;;28.50;47.12;100322.55;2899705;82;20995;-65
2021/06/05 16:38:58;;;;;;;6.15;4.20;;;;;;;28.40;46.84;100328.66;2899812;82;21018;-65
2021/06/05 16:43:00;;;;;;;8.48;4.92;;;;;;;28.22;45.78;100332.39;2899531;82;21050;-65
2021/06/05 16:47:08;;;;;;;6.95;6.22;;;;;;;27.97;47.37;100326.67;2899784;82;21003;-65
2021/06/05 16:51:16;;;;;;;8.28;7.20;;;;;;;27.78;49.58;100329.55;2899501;82;21015;-66
2021/06/05 16:55:19;;;;;;;5.58;5.08;;;;;;;27.57;48.81;100335.09;2899194;82;21007;-65
2021/06/05 16:59:22;;;;;;;6.00;5.40;;;;;;;27.32;47.75;100346.23;2899535;82;20995;-65
2021/06/05 17:03:26;;;;;;;12.70;6.53;;;;;;;27.06;48.23;100342.86;2899540;82;21002;-65
2021/06/05 17:07:40;;;;;;;19.98;7.95;;;;;;;26.82;48.26;100346.87;2899540;82;21027;-66
2021/06/05 17:11:46;;;;;;;6.95;4.70;;;;;;;26.62;48.71;100349.34;2899235;82;21019;-65
2021/06/05 17:15:49;;;;;;;9.98;5.90;;;;;;;26.48;49.19;100351.44;2878342;82;21011;-66
2021/06/05 17:19:51;;;;;;;6.47;5.50;;;;;;;26.34;49.71;100356.23;2902018;82;21006;-65
2021/06/05 17:23:52;;;;;;;6.42;5.05;;;;;;;26.22;50.07;100358.05;2903593;82;21046;-65
2021/06/05 17:27:54;;;;;;;6.65;5.95;;;;;;;26.10;51.54;100360.13;2903051;80;21082;-65
2021/06/05 17:31:56;;;;;;;8.23;5.12;;;;;;;26.01;51.89;100357.94;2903412;82;21062;-65
2021/06/05 17:36:00;;;;;;;6.30;5.25;;;;;;;25.89;52.27;100361.95;2903256;82;20960;-65
2021/06/05 17:40:05;;;;;;;8.98;5.78;;;;;;;25.73;52.25;100364.19;2903160;82;21026;-65
2021/06/05 17:44:06;;;;;;;9.47;7.70;;;;;;;25.64;52.26;100366.92;2903423;82;21023;-65
2021/06/05 17:48:21;;;;;;;7.97;6.17;;;;;;;25.52;52.67;100364.09;2902997;82;21015;-65
2021/06/05 17:52:22;;;;;;;11.30;8.63;;;;;;;25.39;53.11;100370.47;2902950;82;21006;-65
2021/06/05 17:56:25;;;;;;;9.28;8.18;;;;;;;25.24;53.56;100372.98;2902928;82;21027;-65
2021/06/05 18:00:35;;;;;;;7.67;5.80;;;;;;;25.11;53.86;100377.16;2903104;82;21014;-65
2021/06/05 18:04:38;;;;;;;7.78;6.55;;;;;;;24.97;53.82;100383.22;2876467;82;28175;-65
2021/06/05 18:08:48;;;;;;;8.33;5.85;;;;;;;24.93;53.38;100389.62;2902863;82;21051;-65
2021/06/05 18:12:49;;;;;;;5.92;5.33;;;;;;;24.83;53.78;100397.44;2902564;82;20995;-65
2021/06/05 18:16:56;;;;;;;10.60;6.25;;;;;;;24.67;53.39;100402.83;2902736;82;21063;-65
2021/06/05 18:21:01;;;;;;;8.60;6.00;;;;;;;24.51;53.22;100406.86;2902830;82;21062;-65
2021/06/05 18:25:06;;;;;;;5.90;5.35;;;;;;;24.32;53.09;100409.44;2902909;82;21023;-65
2021/06/05 18:29:10;;;;;;;5.80;5.20;;;;;;;24.12;53.61;100418.17;2903115;80;21059;-65
2021/06/05 18:33:17;;;;;;;8.65;6.10;;;;;;;23.95;53.76;100419.94;2902645;82;21399;-65
2021/06/05 18:37:23;;;;;;;8.65;6.72;;;;;;;23.79;53.89;100419.86;2899551;80;21069;-65
2021/06/05 18:41:29;;;;;;;6.95;5.65;;;;;;;23.62;54.23;100426.25;2884640;82;21054;-64
2021/06/05 18:45:36;;;;;;;9.03;7.30;;;;;;;23.44;54.90;100430.42;2884705;82;21026;-65
2021/06/05 18:49:42;;;;;;;9.63;5.70;;;;;;;23.24;55.60;100427.13;2884670;82;20951;-63
2021/06/05 18:53:44;;;;;;;7.25;6.55;;;;;;;23.04;55.95;100437.11;2901545;80;21031;-65
2021/06/05 18:57:50;;;;;;;9.70;6.47;;;;;;;22.85;56.25;100435.49;2950720;80;20995;-65
2021/06/05 19:01:54;;;;;;;6.12;5.40;;;;;;;22.64;56.95;100431.88;2933747;80;21004;-65
2021/06/05 19:05:59;;;;;;;7.53;5.50;;;;;;;22.47;57.60;100435.42;2951350;80;21007;-64